createdAt,value
2018-02-14T00:00:55.516Z,0.00
2018-02-14T00:01:55.539Z,0.00
2018-02-14T00:02:55.567Z,0.00
2018-02-14T00:03:55.584Z,0.00
2018-02-14T00:04:55.606Z,0.00
2018-02-14T00:05:55.630Z,0.00
2018-02-14T00:06:55.652Z,0.00
2018-02-14T00:07:55.672Z,0.00
2018-02-14T00:08:55.696Z,0.00
2018-02-14T00:09:55.717Z,0.00
2018-02-14T00:10:55.742Z,0.00
2018-02-14T00:11:55.762Z,0.00
2018-02-14T00:12:55.786Z,0.00
2018-02-14T00:13:55.808Z,0.00
2018-02-14T00:14:55.831Z,0.00
2018-02-14T00:15:55.852Z,0.00
2018-02-14T00:16:55.876Z,0.00
2018-02-14T00:17:55.897Z,0.00
2018-02-14T00:18:55.920Z,0.00
2018-02-14T00:19:55.942Z,0.00
2018-02-14T00:20:55.964Z,0.00
2018-02-14T00:21:55.987Z,0.00
2018-02-14T00:22:56.010Z,0.00
2018-02-14T00:23:56.031Z,0.00
2018-02-14T00:24:56.054Z,0.00
2018-02-14T00:25:56.075Z,0.00
2018-02-14T00:26:56.098Z,0.00
2018-02-14T00:27:56.120Z,0.00
2018-02-14T00:28:56.143Z,0.00
2018-02-14T00:29:56.164Z,0.00
2018-02-14T00:30:56.188Z,0.00
2018-02-14T00:31:56.209Z,0.00
2018-02-14T00:32:56.232Z,0.00
2018-02-14T00:33:56.254Z,0.00
2018-02-14T00:34:56.276Z,0.00
2018-02-14T00:35:56.302Z,0.00
2018-02-14T00:36:56.321Z,0.00
2018-02-14T00:37:56.343Z,0.00
2018-02-14T00:38:56.366Z,0.00
2018-02-14T00:39:56.387Z,0.00
2018-02-14T00:40:56.409Z,0.00
2018-02-14T00:41:56.434Z,0.00
2018-02-14T00:42:56.455Z,0.00
2018-02-14T00:43:56.475Z,0.00
2018-02-14T00:44:56.499Z,0.00
2018-02-14T00:45:56.536Z,0.00
2018-02-14T00:46:56.542Z,0.00
2018-02-14T00:47:56.567Z,0.00
2018-02-14T00:48:56.587Z,0.00
2018-02-14T00:49:56.610Z,0.00
2018-02-14T00:50:56.633Z,0.00
2018-02-14T00:51:56.653Z,0.00
2018-02-14T00:52:56.676Z,0.00
2018-02-14T00:53:56.699Z,0.00
2018-02-14T00:54:56.721Z,0.00
2018-02-14T00:55:56.743Z,0.00
2018-02-14T00:56:56.765Z,0.00
2018-02-14T00:57:56.788Z,0.00
2018-02-14T00:58:56.809Z,0.00
2018-02-14T00:59:56.831Z,0.00
2018-02-14T01:00:56.854Z,0.00
2018-02-14T01:01:56.876Z,0.00
2018-02-14T01:02:56.898Z,0.00
2018-02-14T01:03:56.920Z,0.00
2018-02-14T01:04:56.943Z,0.00
2018-02-14T01:05:56.965Z,0.00
2018-02-14T01:06:56.987Z,0.00
2018-02-14T01:07:57.008Z,0.00
2018-02-14T01:08:57.031Z,0.00
2018-02-14T01:09:57.053Z,0.00
2018-02-14T01:10:57.076Z,0.00
2018-02-14T01:11:57.097Z,0.00
2018-02-14T01:12:57.120Z,0.00
2018-02-14T01:13:57.142Z,0.00
2018-02-14T01:14:57.164Z,0.00
2018-02-14T01:15:57.184Z,0.00
2018-02-14T01:16:57.207Z,0.00
2018-02-14T01:17:57.230Z,0.00
2018-02-14T01:18:57.253Z,0.00
2018-02-14T01:19:57.277Z,0.00
2018-02-14T01:20:57.296Z,0.00
2018-02-14T01:21:57.318Z,0.00
2018-02-14T01:22:57.340Z,0.00
2018-02-14T01:23:57.363Z,0.00
2018-02-14T01:24:57.384Z,0.00
2018-02-14T01:25:57.407Z,0.00
2018-02-14T01:26:57.429Z,0.00
2018-02-14T01:27:57.450Z,0.00
2018-02-14T01:28:57.473Z,0.00
2018-02-14T01:29:57.494Z,0.00
2018-02-14T01:30:57.518Z,0.00
2018-02-14T01:31:57.539Z,0.00
2018-02-14T01:32:57.561Z,0.00
2018-02-14T01:33:57.583Z,0.00
2018-02-14T01:34:57.606Z,0.00
2018-02-14T01:35:57.627Z,0.00
2018-02-14T01:36:57.650Z,0.00
2018-02-14T01:37:57.672Z,0.00
2018-02-14T01:38:57.694Z,0.00
2018-02-14T01:39:57.715Z,0.00
2018-02-14T01:40:57.737Z,0.00
2018-02-14T01:41:57.760Z,0.00
2018-02-14T01:42:57.782Z,0.00
2018-02-14T01:43:57.805Z,0.00
2018-02-14T01:44:57.826Z,0.00
2018-02-14T01:45:57.848Z,0.00
2018-02-14T01:46:57.870Z,0.00
2018-02-14T01:47:57.892Z,0.00
2018-02-14T01:48:57.915Z,0.00
2018-02-14T01:49:57.935Z,0.00
2018-02-14T01:50:57.959Z,0.00
2018-02-14T01:51:57.980Z,0.00
2018-02-14T01:52:58.005Z,0.00
2018-02-14T01:53:58.025Z,0.00
2018-02-14T01:54:58.047Z,0.00
2018-02-14T01:55:58.069Z,0.00
2018-02-14T01:56:58.090Z,0.00
2018-02-14T01:57:58.113Z,0.00
2018-02-14T01:58:58.135Z,0.00
2018-02-14T01:59:58.156Z,0.00
2018-02-14T02:00:58.177Z,0.00
2018-02-14T02:01:58.201Z,0.00
2018-02-14T02:02:58.223Z,0.00
2018-02-14T02:03:58.243Z,0.00
2018-02-14T02:04:58.268Z,0.00
2018-02-14T02:05:58.289Z,0.00
2018-02-14T02:06:58.311Z,0.00
2018-02-14T02:09:42.044Z,0.00
2018-02-14T02:10:42.063Z,0.00
2018-02-14T02:11:42.085Z,0.00
2018-02-14T02:12:42.106Z,0.00
2018-02-14T02:13:42.128Z,0.00
2018-02-14T02:14:42.153Z,0.00
2018-02-14T02:15:42.172Z,0.00
2018-02-14T02:16:42.195Z,0.00
2018-02-14T02:17:42.216Z,0.00
2018-02-14T02:18:42.238Z,0.00
2018-02-14T02:19:42.259Z,0.00
2018-02-14T02:20:42.289Z,0.00
2018-02-14T02:21:42.311Z,0.00
2018-02-14T02:22:42.333Z,0.00
2018-02-14T02:23:42.354Z,0.00
2018-02-14T02:24:42.376Z,0.00
2018-02-14T02:25:42.397Z,0.00
2018-02-14T02:26:42.420Z,0.00
2018-02-14T02:27:42.442Z,0.00
2018-02-14T02:28:42.464Z,0.00
2018-02-14T02:29:42.486Z,0.00
2018-02-14T02:30:42.508Z,0.00
2018-02-14T02:31:42.530Z,0.00
2018-02-14T02:32:42.551Z,0.00
2018-02-14T02:33:42.574Z,0.00
2018-02-14T02:34:42.596Z,0.00
2018-02-14T02:35:42.617Z,0.00
2018-02-14T02:36:42.638Z,0.00
2018-02-14T02:37:42.661Z,0.00
2018-02-14T02:38:42.682Z,0.00
2018-02-14T02:39:42.704Z,0.00
2018-02-14T02:40:42.727Z,0.00
2018-02-14T02:41:42.748Z,0.00
2018-02-14T02:42:42.771Z,0.00
2018-02-14T02:43:42.794Z,0.00
2018-02-14T02:44:42.813Z,0.00
2018-02-14T02:45:42.836Z,0.00
2018-02-14T02:46:42.857Z,0.00
2018-02-14T02:47:42.880Z,0.00
2018-02-14T02:48:42.900Z,0.00
2018-02-14T02:49:42.924Z,0.00
2018-02-14T02:50:42.948Z,0.00
2018-02-14T02:51:42.967Z,0.00
2018-02-14T02:52:42.988Z,0.00
2018-02-14T02:53:43.011Z,0.00
2018-02-14T02:54:43.032Z,0.00
2018-02-14T02:55:43.055Z,0.00
2018-02-14T02:56:43.076Z,0.00
2018-02-14T02:57:43.098Z,0.00
2018-02-14T02:58:43.120Z,0.00
2018-02-14T02:59:43.145Z,0.00
2018-02-14T03:00:43.163Z,0.00
2018-02-14T03:01:43.184Z,0.00
2018-02-14T03:02:43.210Z,0.00
2018-02-14T03:03:43.229Z,0.00
2018-02-14T03:04:43.249Z,0.00
2018-02-14T03:05:43.272Z,0.00
2018-02-14T03:06:43.294Z,0.00
2018-02-14T03:07:43.316Z,0.00
2018-02-14T03:08:43.337Z,0.00
2018-02-14T03:09:43.360Z,0.00
2018-02-14T03:10:43.382Z,0.00
2018-02-14T03:11:43.403Z,0.00
2018-02-14T03:12:43.424Z,0.00
2018-02-14T03:13:46.902Z,0.00
2018-02-14T03:14:43.467Z,0.00
2018-02-14T03:15:43.490Z,0.00
2018-02-14T03:16:43.513Z,0.00
2018-02-14T03:17:43.534Z,0.00
2018-02-14T03:18:43.555Z,0.00
2018-02-14T03:19:43.576Z,0.00
2018-02-14T03:20:43.598Z,0.00
2018-02-14T03:21:43.623Z,0.00
2018-02-14T03:22:43.641Z,0.00
2018-02-14T03:23:43.666Z,0.00
2018-02-14T03:24:43.684Z,0.00
2018-02-14T03:25:43.707Z,0.00
2018-02-14T03:26:43.728Z,0.00
2018-02-14T03:27:43.750Z,0.00
2018-02-14T03:28:43.772Z,0.00
2018-02-14T03:29:43.794Z,0.00
2018-02-14T03:30:43.818Z,0.00
2018-02-14T03:31:43.838Z,0.00
2018-02-14T03:32:43.858Z,0.00
2018-02-14T03:33:43.880Z,0.00
2018-02-14T03:34:43.903Z,0.00
2018-02-14T03:35:43.925Z,0.00
2018-02-14T03:36:43.946Z,0.00
2018-02-14T03:37:43.967Z,0.00
2018-02-14T03:38:43.990Z,0.00
2018-02-14T03:39:44.012Z,0.00
2018-02-14T03:40:44.032Z,0.00
2018-02-14T03:41:44.054Z,0.00
2018-02-14T03:42:44.077Z,0.00
2018-02-14T03:43:44.097Z,0.00
2018-02-14T03:44:44.118Z,0.00
2018-02-14T03:45:44.142Z,0.00
2018-02-14T03:46:44.163Z,0.00
2018-02-14T03:47:44.186Z,0.00
2018-02-14T03:48:44.205Z,0.00
2018-02-14T03:49:44.227Z,0.00
2018-02-14T03:50:44.249Z,0.00
2018-02-14T03:51:44.271Z,0.00
2018-02-14T03:52:44.292Z,0.00
2018-02-14T03:53:44.313Z,0.00
2018-02-14T03:54:44.336Z,0.00
2018-02-14T03:55:44.357Z,0.00
2018-02-14T03:56:44.378Z,0.00
2018-02-14T03:57:44.400Z,0.00
2018-02-14T03:58:44.422Z,0.00
2018-02-14T03:59:44.445Z,0.00
2018-02-14T04:00:44.464Z,0.00
2018-02-14T04:01:44.485Z,0.00
2018-02-14T04:02:44.509Z,0.00
2018-02-14T04:03:44.531Z,0.00
2018-02-14T04:04:44.551Z,0.00
2018-02-14T04:05:44.573Z,0.00
2018-02-14T04:06:44.594Z,0.00
2018-02-14T04:07:44.616Z,0.00
2018-02-14T04:08:44.638Z,0.00
2018-02-14T04:09:44.659Z,0.00
2018-02-14T04:10:44.707Z,0.00
2018-02-14T04:11:44.703Z,0.00
2018-02-14T04:12:44.723Z,0.00
2018-02-14T04:13:44.744Z,0.00
2018-02-14T04:14:44.766Z,0.00
2018-02-14T04:15:44.789Z,0.00
2018-02-14T04:16:44.810Z,0.00
2018-02-14T04:17:44.831Z,0.00
2018-02-14T04:18:44.853Z,0.00
2018-02-14T04:19:44.876Z,0.00
2018-02-14T04:20:44.896Z,0.00
2018-02-14T04:21:44.917Z,0.00
2018-02-14T04:22:44.940Z,0.00
2018-02-14T04:23:44.962Z,0.00
2018-02-14T04:24:45.033Z,0.00
2018-02-14T04:25:45.006Z,0.00
2018-02-14T04:26:45.028Z,0.00
2018-02-14T04:27:45.047Z,0.00
2018-02-14T04:28:45.069Z,0.00
2018-02-14T04:29:45.091Z,0.00
2018-02-14T04:30:45.111Z,0.00
2018-02-14T04:31:45.133Z,0.00
2018-02-14T04:32:45.154Z,0.00
2018-02-14T04:33:45.176Z,0.00
2018-02-14T04:34:45.197Z,0.00
2018-02-14T04:35:45.219Z,0.00
2018-02-14T04:36:45.240Z,0.00
2018-02-14T04:37:45.262Z,0.00
2018-02-14T04:38:45.286Z,0.00
2018-02-14T04:39:45.306Z,0.00
2018-02-14T04:40:45.329Z,0.00
2018-02-14T04:41:45.349Z,0.00
2018-02-14T04:42:45.370Z,0.00
2018-02-14T04:43:45.392Z,0.00
2018-02-14T04:44:45.415Z,0.00
2018-02-14T04:45:45.434Z,0.00
2018-02-14T04:46:45.457Z,0.00
2018-02-14T04:47:45.478Z,0.00
2018-02-14T04:48:45.498Z,0.00
2018-02-14T04:49:45.559Z,0.00
2018-02-14T04:50:45.542Z,0.00
2018-02-14T04:51:45.563Z,0.00
2018-02-14T04:52:45.585Z,0.00
2018-02-14T04:53:45.606Z,0.00
2018-02-14T04:54:45.627Z,0.00
2018-02-14T04:55:45.649Z,0.00
2018-02-14T04:56:45.670Z,0.00
2018-02-14T04:57:45.691Z,0.00
2018-02-14T04:58:45.713Z,0.00
2018-02-14T04:59:45.734Z,0.00
2018-02-14T05:00:45.762Z,0.00
2018-02-14T05:01:45.776Z,0.00
2018-02-14T05:02:45.798Z,0.00
2018-02-14T05:03:45.819Z,0.00
2018-02-14T05:04:45.840Z,0.00
2018-02-14T05:05:45.862Z,0.00
2018-02-14T05:06:45.884Z,0.00
2018-02-14T05:07:45.904Z,0.00
2018-02-14T05:08:45.926Z,0.00
2018-02-14T05:09:45.948Z,0.00
2018-02-14T05:10:45.967Z,0.00
2018-02-14T05:11:45.991Z,0.00
2018-02-14T05:12:46.011Z,0.00
2018-02-14T05:13:46.033Z,0.00
2018-02-14T05:14:46.056Z,0.00
2018-02-14T05:15:46.075Z,0.00
2018-02-14T05:16:46.096Z,0.00
2018-02-14T05:17:46.118Z,0.00
2018-02-14T05:18:46.140Z,0.00
2018-02-14T05:19:46.161Z,0.00
2018-02-14T05:20:46.182Z,0.00
2018-02-14T05:21:46.203Z,0.00
2018-02-14T05:22:46.224Z,0.00
2018-02-14T05:23:46.247Z,0.00
2018-02-14T05:24:46.270Z,0.00
2018-02-14T05:25:46.289Z,0.00
2018-02-14T05:26:46.312Z,0.00
2018-02-14T05:27:46.331Z,0.00
2018-02-14T05:28:46.354Z,0.00
2018-02-14T05:29:46.374Z,0.00
2018-02-14T05:30:46.397Z,0.00
2018-02-14T05:31:46.419Z,0.00
2018-02-14T05:32:46.442Z,0.00
2018-02-14T05:33:46.458Z,0.00
2018-02-14T05:34:46.482Z,0.00
2018-02-14T05:35:46.503Z,0.00
2018-02-14T05:36:46.524Z,0.00
2018-02-14T05:37:46.545Z,0.00
2018-02-14T05:38:46.567Z,0.00
2018-02-14T05:39:46.588Z,0.00
2018-02-14T05:40:46.609Z,0.00
2018-02-14T05:41:46.633Z,0.00
2018-02-14T05:42:46.651Z,0.00
2018-02-14T05:43:46.673Z,0.00
2018-02-14T05:44:46.694Z,0.00
2018-02-14T05:45:46.716Z,0.00
2018-02-14T05:46:46.738Z,0.00
2018-02-14T05:47:46.760Z,0.00
2018-02-14T05:48:46.780Z,0.00
2018-02-14T05:49:46.801Z,0.00
2018-02-14T05:50:46.824Z,0.00
2018-02-14T05:51:46.843Z,0.00
2018-02-14T05:52:46.865Z,0.00
2018-02-14T05:53:46.888Z,0.00
2018-02-14T05:54:46.908Z,0.00
2018-02-14T05:55:46.930Z,0.00
2018-02-14T05:56:46.951Z,0.00
2018-02-14T05:57:46.972Z,0.00
2018-02-14T05:58:46.993Z,0.00
2018-02-14T05:59:47.015Z,0.00
2018-02-14T06:00:47.034Z,0.00
2018-02-14T06:01:47.057Z,0.00
2018-02-14T06:02:47.079Z,0.00
2018-02-14T06:03:47.102Z,0.00
2018-02-14T06:04:47.119Z,0.00
2018-02-14T06:05:47.142Z,0.00
2018-02-14T06:06:47.163Z,0.00
2018-02-14T06:07:47.185Z,0.00
2018-02-14T06:08:47.204Z,0.00
2018-02-14T06:09:47.227Z,0.00
2018-02-14T06:10:47.247Z,0.00
2018-02-14T06:11:47.277Z,0.00
2018-02-14T06:12:47.289Z,0.00
2018-02-14T06:13:47.312Z,0.00
2018-02-14T06:14:47.334Z,0.00
2018-02-14T06:15:47.354Z,0.00
2018-02-14T06:16:47.375Z,0.00
2018-02-14T06:17:47.402Z,0.00
2018-02-14T06:18:47.417Z,0.00
2018-02-14T06:19:47.439Z,0.00
2018-02-14T06:20:47.459Z,0.00
2018-02-14T06:21:47.480Z,0.00
2018-02-14T06:22:47.503Z,0.00
2018-02-14T06:23:47.524Z,0.00
2018-02-14T06:24:47.544Z,0.00
2018-02-14T06:25:47.566Z,0.00
2018-02-14T06:26:47.589Z,0.00
2018-02-14T06:27:47.610Z,0.00
2018-02-14T06:28:47.630Z,0.00
2018-02-14T06:29:47.650Z,0.00
2018-02-14T06:30:47.672Z,0.00
2018-02-14T06:31:47.694Z,5.63
2018-02-14T06:32:47.716Z,5.63
2018-02-14T06:33:47.736Z,5.63
2018-02-14T06:34:47.757Z,5.63
2018-02-14T06:35:47.778Z,5.63
2018-02-14T06:36:47.800Z,5.63
2018-02-14T06:37:47.821Z,11.25
2018-02-14T06:38:47.842Z,11.25
2018-02-14T06:39:47.863Z,11.25
2018-02-14T06:40:47.885Z,11.25
2018-02-14T06:41:47.905Z,11.25
2018-02-14T06:42:47.928Z,16.88
2018-02-14T06:43:47.950Z,16.88
2018-02-14T06:44:47.970Z,16.88
2018-02-14T06:45:47.990Z,16.88
2018-02-14T06:46:48.013Z,16.88
2018-02-14T06:47:48.037Z,22.50
2018-02-14T06:48:48.055Z,22.50
2018-02-14T06:49:48.076Z,22.50
2018-02-14T06:50:48.100Z,22.50
2018-02-14T06:51:48.119Z,28.13
2018-02-14T06:52:48.140Z,28.13
2018-02-14T06:53:48.160Z,28.13
2018-02-14T06:54:48.184Z,28.13
2018-02-14T06:55:48.206Z,33.75
2018-02-14T06:56:48.224Z,33.75
2018-02-14T06:57:48.253Z,33.75
2018-02-14T06:58:48.269Z,39.38
2018-02-14T06:59:48.290Z,39.38
2018-02-14T07:00:48.314Z,39.38
2018-02-14T07:01:48.334Z,45.00
2018-02-14T07:02:48.353Z,50.63
2018-02-14T07:03:48.375Z,50.63
2018-02-14T07:04:48.397Z,56.25
2018-02-14T07:05:48.418Z,56.25
2018-02-14T07:06:48.442Z,56.25
2018-02-14T07:07:48.464Z,56.25
2018-02-14T07:08:48.484Z,56.25
2018-02-14T07:09:48.505Z,61.88
2018-02-14T07:10:48.562Z,67.50
2018-02-14T07:11:48.548Z,67.50
2018-02-14T07:12:48.569Z,67.50
2018-02-14T07:13:48.592Z,73.13
2018-02-14T07:14:48.616Z,73.13
2018-02-14T07:15:48.636Z,78.75
2018-02-14T07:16:48.656Z,78.75
2018-02-14T07:17:48.681Z,84.38
2018-02-14T07:18:48.702Z,84.38
2018-02-14T07:19:48.750Z,90.00
2018-02-14T07:20:48.746Z,90.00
2018-02-14T07:21:48.763Z,95.63
2018-02-14T07:22:48.788Z,95.63
2018-02-14T07:23:48.810Z,95.63
2018-02-14T07:24:48.832Z,101.25
2018-02-14T07:25:48.856Z,101.25
2018-02-14T07:26:48.877Z,106.88
2018-02-14T07:27:48.899Z,106.88
2018-02-14T07:28:48.920Z,112.50
2018-02-14T07:29:48.943Z,112.50
2018-02-14T07:30:48.965Z,118.13
2018-02-14T07:31:48.987Z,118.13
2018-02-14T07:32:49.009Z,123.75
2018-02-14T07:33:49.031Z,123.75
2018-02-14T07:34:49.055Z,129.38
2018-02-14T07:35:49.076Z,129.38
2018-02-14T07:36:49.097Z,135.00
2018-02-14T07:37:49.127Z,135.00
2018-02-14T07:38:49.146Z,135.00
2018-02-14T07:39:49.168Z,140.63
2018-02-14T07:40:49.188Z,146.25
2018-02-14T07:41:49.212Z,146.25
2018-02-14T07:42:49.236Z,151.88
2018-02-14T07:43:49.259Z,163.13
2018-02-14T07:44:49.281Z,168.75
2018-02-14T07:45:49.304Z,174.38
2018-02-14T07:46:49.328Z,174.38
2018-02-14T07:47:49.351Z,180.00
2018-02-14T07:48:49.373Z,185.63
2018-02-14T07:49:49.397Z,185.63
2018-02-14T07:50:49.421Z,185.63
2018-02-14T07:51:49.445Z,196.88
2018-02-14T07:52:49.468Z,191.25
2018-02-14T07:53:49.491Z,191.25
2018-02-14T07:54:49.514Z,196.88
2018-02-14T07:55:49.539Z,202.50
2018-02-14T07:56:49.564Z,208.13
2018-02-14T07:57:49.589Z,219.38
2018-02-14T07:58:49.612Z,225.00
2018-02-14T07:59:49.634Z,230.63
2018-02-14T08:00:49.659Z,236.25
2018-02-14T08:01:49.684Z,241.88
2018-02-14T08:02:49.709Z,241.88
2018-02-14T08:03:49.734Z,247.50
2018-02-14T08:04:49.758Z,258.75
2018-02-14T08:05:49.786Z,270.00
2018-02-14T08:06:49.807Z,270.00
2018-02-14T08:07:49.835Z,275.63
2018-02-14T08:08:49.857Z,286.88
2018-02-14T08:09:49.884Z,286.88
2018-02-14T08:10:49.909Z,292.50
2018-02-14T08:11:49.976Z,298.13
2018-02-14T08:12:49.963Z,303.75
2018-02-14T08:13:49.986Z,315.00
2018-02-14T08:14:50.011Z,315.00
2018-02-14T08:15:50.038Z,326.25
2018-02-14T08:16:50.063Z,326.25
2018-02-14T08:17:50.090Z,331.88
2018-02-14T08:18:50.116Z,337.50
2018-02-14T08:19:50.142Z,343.13
2018-02-14T08:20:50.173Z,360.00
2018-02-14T08:21:50.196Z,421.88
2018-02-14T08:22:50.269Z,517.50
2018-02-14T08:23:50.250Z,573.75
2018-02-14T08:24:50.286Z,590.63
2018-02-14T08:25:50.304Z,607.50
2018-02-14T08:26:50.332Z,613.13
2018-02-14T08:27:50.359Z,641.25
2018-02-14T08:28:50.386Z,669.38
2018-02-14T08:29:50.413Z,686.25
2018-02-14T08:30:50.442Z,686.25
2018-02-14T08:31:50.468Z,725.63
2018-02-14T08:32:50.497Z,725.63
2018-02-14T08:33:50.525Z,708.75
2018-02-14T08:34:50.555Z,691.88
2018-02-14T08:35:50.582Z,708.75
2018-02-14T08:36:50.610Z,736.88
2018-02-14T08:37:50.637Z,742.50
2018-02-14T08:38:50.666Z,759.38
2018-02-14T08:39:50.697Z,770.63
2018-02-14T08:40:50.724Z,776.25
2018-02-14T08:41:50.753Z,793.13
2018-02-14T08:42:50.783Z,810.00
2018-02-14T08:43:50.815Z,810.00
2018-02-14T08:44:50.842Z,832.50
2018-02-14T08:45:50.873Z,843.75
2018-02-14T08:46:50.902Z,860.63
2018-02-14T08:47:50.931Z,843.75
2018-02-14T08:48:50.962Z,838.13
2018-02-14T08:49:50.992Z,871.88
2018-02-14T08:50:51.022Z,883.13
2018-02-14T08:51:51.053Z,877.50
2018-02-14T08:52:51.083Z,877.50
2018-02-14T08:53:51.113Z,883.13
2018-02-14T08:54:51.146Z,928.13
2018-02-14T08:55:51.177Z,939.38
2018-02-14T08:56:51.207Z,950.63
2018-02-14T08:57:51.238Z,973.13
2018-02-14T08:58:51.269Z,990.00
2018-02-14T08:59:51.302Z,1012.50
2018-02-14T09:00:51.331Z,1012.50
2018-02-14T09:01:51.365Z,1018.13
2018-02-14T09:02:51.397Z,1012.50
2018-02-14T09:03:51.432Z,1035.00
2018-02-14T09:04:51.459Z,1035.00
2018-02-14T09:05:51.495Z,1035.00
2018-02-14T09:06:51.527Z,1080.00
2018-02-14T09:07:51.559Z,1102.50
2018-02-14T09:08:51.592Z,1113.75
2018-02-14T09:09:51.624Z,1130.63
2018-02-14T09:10:51.743Z,1170.00
2018-02-14T09:11:51.692Z,1198.13
2018-02-14T09:12:51.724Z,1231.88
2018-02-14T09:13:51.759Z,1231.88
2018-02-14T09:14:51.791Z,1226.25
2018-02-14T09:15:51.826Z,1203.75
2018-02-14T09:16:51.859Z,1203.75
2018-02-14T09:17:51.892Z,1220.63
2018-02-14T09:18:51.929Z,1220.63
2018-02-14T09:19:51.981Z,1220.63
2018-02-14T09:20:51.995Z,1226.25
2018-02-14T09:21:52.035Z,1243.13
2018-02-14T09:22:52.067Z,1271.25
2018-02-14T09:23:52.102Z,1276.88
2018-02-14T09:24:52.136Z,1299.38
2018-02-14T09:25:52.173Z,1310.63
2018-02-14T09:26:52.209Z,1299.38
2018-02-14T09:27:52.244Z,1333.13
2018-02-14T09:28:52.280Z,1316.25
2018-02-14T09:29:52.319Z,1333.13
2018-02-14T09:30:52.353Z,1366.88
2018-02-14T09:31:52.390Z,1389.38
2018-02-14T09:32:52.424Z,1406.25
2018-02-14T09:33:52.462Z,1338.75
2018-02-14T09:34:52.500Z,1276.88
2018-02-14T09:35:52.536Z,1344.38
2018-02-14T09:36:52.574Z,1378.13
2018-02-14T09:37:52.612Z,1310.63
2018-02-14T09:38:52.649Z,1333.13
2018-02-14T09:39:52.689Z,1333.13
2018-02-14T09:40:52.725Z,1355.63
2018-02-14T09:41:52.762Z,1378.13
2018-02-14T09:42:52.801Z,1395.00
2018-02-14T09:43:52.840Z,1423.13
2018-02-14T09:44:52.878Z,1395.00
2018-02-14T09:45:52.916Z,1400.63
2018-02-14T09:46:52.956Z,1485.00
2018-02-14T09:47:52.994Z,1496.25
2018-02-14T09:48:53.032Z,1496.25
2018-02-14T09:49:53.073Z,1496.25
2018-02-14T09:50:53.111Z,1473.75
2018-02-14T09:51:53.150Z,1451.25
2018-02-14T09:52:53.190Z,1473.75
2018-02-14T09:53:53.231Z,1456.88
2018-02-14T09:54:53.272Z,1501.88
2018-02-14T09:55:53.311Z,1541.25
2018-02-14T09:56:53.351Z,1507.50
2018-02-14T09:57:53.390Z,1468.13
2018-02-14T09:58:53.432Z,1479.38
2018-02-14T09:59:53.472Z,1541.25
2018-02-14T10:00:53.512Z,1524.38
2018-02-14T10:01:53.552Z,1530.00
2018-02-14T10:02:53.593Z,1501.88
2018-02-14T10:03:53.633Z,1473.75
2018-02-14T10:04:53.673Z,1485.00
2018-02-14T10:05:53.716Z,1614.38
2018-02-14T10:06:53.756Z,1659.38
2018-02-14T10:07:53.798Z,1704.38
2018-02-14T10:08:53.839Z,1743.75
2018-02-14T10:09:53.880Z,1760.63
2018-02-14T10:10:53.921Z,1783.13
2018-02-14T10:11:53.987Z,1794.38
2018-02-14T10:12:54.004Z,1794.38
2018-02-14T10:13:54.047Z,1760.63
2018-02-14T10:14:54.090Z,1771.88
2018-02-14T10:15:54.134Z,1631.25
2018-02-14T10:16:54.177Z,1276.88
2018-02-14T10:17:54.216Z,1186.88
2018-02-14T10:18:54.259Z,1181.25
2018-02-14T10:19:54.300Z,1164.38
2018-02-14T10:20:54.343Z,1141.88
2018-02-14T10:21:54.386Z,1130.63
2018-02-14T10:22:54.429Z,1141.88
2018-02-14T10:23:54.477Z,1141.88
2018-02-14T10:24:54.520Z,1209.38
2018-02-14T10:25:54.558Z,1518.75
2018-02-14T10:26:54.602Z,1783.13
2018-02-14T10:27:54.645Z,1850.63
2018-02-14T10:28:54.688Z,1940.63
2018-02-14T10:29:54.732Z,1935.00
2018-02-14T10:30:54.776Z,1935.00
2018-02-14T10:31:54.820Z,1946.25
2018-02-14T10:32:54.864Z,1963.13
2018-02-14T10:33:54.909Z,1985.63
2018-02-14T10:34:54.952Z,1963.13
2018-02-14T10:35:54.996Z,1946.25
2018-02-14T10:36:55.040Z,1980.00
2018-02-14T10:37:55.084Z,2025.00
2018-02-14T10:38:55.129Z,2058.75
2018-02-14T10:39:55.174Z,2064.38
2018-02-14T10:40:55.218Z,2064.38
2018-02-14T10:41:55.265Z,2086.88
2018-02-14T10:42:55.308Z,2053.13
2018-02-14T10:43:55.353Z,2047.50
2018-02-14T10:44:55.398Z,2081.25
2018-02-14T10:45:55.445Z,2058.75
2018-02-14T10:46:55.489Z,2075.63
2018-02-14T10:47:55.535Z,2047.50
2018-02-14T10:48:55.581Z,2036.25
2018-02-14T10:49:55.625Z,2030.63
2018-02-14T10:50:55.670Z,2002.50
2018-02-14T10:51:55.718Z,1974.38
2018-02-14T10:52:55.760Z,2002.50
2018-02-14T10:53:55.806Z,2008.13
2018-02-14T10:54:55.852Z,1946.25
2018-02-14T10:55:55.896Z,1923.75
2018-02-14T10:56:55.940Z,2019.38
2018-02-14T10:57:55.989Z,2013.75
2018-02-14T10:58:56.031Z,2002.50
2018-02-14T10:59:56.077Z,2008.13
2018-02-14T11:00:56.121Z,2064.38
2018-02-14T11:01:56.167Z,2109.38
2018-02-14T11:02:56.213Z,2143.13
2018-02-14T11:03:56.259Z,2148.75
2018-02-14T11:04:56.308Z,2131.88
2018-02-14T11:05:56.349Z,2154.38
2018-02-14T11:06:56.400Z,2148.75
2018-02-14T11:07:56.441Z,2148.75
2018-02-14T11:08:56.485Z,2143.13
2018-02-14T11:09:56.531Z,2131.88
2018-02-14T11:10:56.577Z,2154.38
2018-02-14T11:11:56.623Z,2171.25
2018-02-14T11:12:56.667Z,2193.75
2018-02-14T11:13:56.716Z,2199.38
2018-02-14T11:14:56.760Z,2188.13
2018-02-14T11:15:56.806Z,2176.88
2018-02-14T11:16:56.850Z,2199.38
2018-02-14T11:17:56.896Z,2160.00
2018-02-14T11:18:56.942Z,2182.50
2018-02-14T11:19:56.988Z,2272.50
2018-02-14T11:20:57.032Z,2295.00
2018-02-14T11:21:57.078Z,2317.50
2018-02-14T11:22:57.123Z,2340.00
2018-02-14T11:23:57.170Z,2323.13
2018-02-14T11:24:57.215Z,2306.25
2018-02-14T11:25:57.261Z,2362.50
2018-02-14T11:26:57.310Z,2373.75
2018-02-14T11:27:57.355Z,2385.00
2018-02-14T11:28:57.401Z,2334.38
2018-02-14T11:29:57.447Z,2311.88
2018-02-14T11:30:57.493Z,2311.88
2018-02-14T11:31:57.539Z,2345.63
2018-02-14T11:32:57.586Z,2356.88
2018-02-14T11:33:57.634Z,2368.13
2018-02-14T11:34:57.680Z,2345.63
2018-02-14T11:35:57.729Z,2340.00
2018-02-14T11:36:57.773Z,2368.13
2018-02-14T11:37:57.819Z,2345.63
2018-02-14T11:38:57.868Z,2323.13
2018-02-14T11:39:57.914Z,2306.25
2018-02-14T11:40:57.960Z,2272.50
2018-02-14T11:41:58.008Z,2362.50
2018-02-14T11:42:58.056Z,2463.75
2018-02-14T11:43:58.102Z,2486.25
2018-02-14T11:44:58.149Z,2531.25
2018-02-14T11:45:58.196Z,2576.25
2018-02-14T11:46:58.245Z,2480.63
2018-02-14T11:47:58.291Z,2413.13
2018-02-14T11:48:58.340Z,2362.50
2018-02-14T11:49:58.388Z,2238.75
2018-02-14T11:50:58.435Z,2070.00
2018-02-14T11:51:58.483Z,1918.13
2018-02-14T11:52:58.530Z,1805.63
2018-02-14T11:53:58.580Z,1760.63
2018-02-14T11:54:58.629Z,1726.88
2018-02-14T11:55:58.676Z,1721.25
2018-02-14T11:56:58.722Z,1715.63
2018-02-14T11:57:58.771Z,1704.38
2018-02-14T11:58:58.820Z,1687.50
2018-02-14T11:59:58.869Z,1693.13
2018-02-14T12:00:58.916Z,1670.63
2018-02-14T12:01:58.966Z,1659.38
2018-02-14T12:02:59.014Z,1665.00
2018-02-14T12:03:59.082Z,1721.25
2018-02-14T12:04:59.109Z,1732.50
2018-02-14T12:05:59.159Z,1743.75
2018-02-14T12:06:59.208Z,1726.88
2018-02-14T12:07:59.256Z,1715.63
2018-02-14T12:08:59.306Z,1732.50
2018-02-14T12:09:59.355Z,1721.25
2018-02-14T12:10:59.403Z,1704.38
2018-02-14T12:11:59.454Z,1698.75
2018-02-14T12:12:59.500Z,1743.75
2018-02-14T12:13:59.553Z,1788.75
2018-02-14T12:14:59.599Z,1822.50
2018-02-14T12:15:59.646Z,1850.63
2018-02-14T12:16:59.695Z,1867.50
2018-02-14T12:17:59.742Z,1833.75
2018-02-14T12:18:59.792Z,1845.00
2018-02-14T12:19:59.842Z,1890.00
2018-02-14T12:20:59.889Z,1912.50
2018-02-14T12:21:59.938Z,1906.88
2018-02-14T12:22:59.987Z,1873.13
2018-02-14T12:24:00.038Z,1867.50
2018-02-14T12:25:00.085Z,1867.50
2018-02-14T12:26:00.133Z,1884.38
2018-02-14T12:27:00.180Z,1895.63
2018-02-14T12:28:00.230Z,1923.75
2018-02-14T12:29:00.278Z,1940.63
2018-02-14T12:30:00.326Z,1980.00
2018-02-14T12:31:00.373Z,2103.75
2018-02-14T12:32:00.423Z,2176.88
2018-02-14T12:33:00.470Z,2171.25
2018-02-14T12:34:00.519Z,2160.00
2018-02-14T12:35:00.567Z,2160.00
2018-02-14T12:36:00.616Z,2160.00
2018-02-14T12:37:00.667Z,2182.50
2018-02-14T12:38:00.713Z,2182.50
2018-02-14T12:39:00.763Z,2188.13
2018-02-14T12:40:00.811Z,2120.63
2018-02-14T12:41:00.858Z,2165.63
2018-02-14T12:42:00.905Z,2165.63
2018-02-14T12:43:00.954Z,2160.00
2018-02-14T12:44:01.002Z,2154.38
2018-02-14T12:45:01.050Z,2182.50
2018-02-14T12:46:01.098Z,2193.75
2018-02-14T12:47:01.145Z,2199.38
2018-02-14T12:48:01.199Z,2193.75
2018-02-14T12:49:01.243Z,2165.63
2018-02-14T12:50:01.291Z,2154.38